createdAt,value
2019-04-03T00:01:27.576Z,26.87
2019-04-03T00:04:00.211Z,23.80
2019-04-03T00:06:33.723Z,25.67
2019-04-03T00:09:09.020Z,21.20
2019-04-03T00:11:43.116Z,23.57
2019-04-03T00:14:15.295Z,24.30
2019-04-03T00:16:47.856Z,23.57
2019-04-03T00:19:20.374Z,21.23
2019-04-03T00:21:52.935Z,22.40
2019-04-03T00:24:25.554Z,23.30
2019-04-03T00:26:58.700Z,20.93
2019-04-03T00:29:31.314Z,20.93
2019-04-03T00:32:03.802Z,24.27
2019-04-03T00:34:36.300Z,22.90
2019-04-03T00:37:08.880Z,21.97
2019-04-03T00:39:41.520Z,26.00
2019-04-03T00:42:14.055Z,25.40
2019-04-03T00:44:46.286Z,30.77
2019-04-03T00:47:19.731Z,25.03
2019-04-03T00:49:52.341Z,25.97
2019-04-03T00:52:25.876Z,22.60
2019-04-03T00:54:59.375Z,23.73
2019-04-03T00:57:32.336Z,20.47
2019-04-03T01:00:10.630Z,23.17
2019-04-03T01:02:43.965Z,24.87
2019-04-03T01:05:16.493Z,21.20
2019-04-03T01:07:49.037Z,23.07
2019-04-03T01:10:21.370Z,21.33
2019-04-03T01:12:53.872Z,24.27
2019-04-03T01:15:26.996Z,28.33
2019-04-03T01:17:59.564Z,25.80
2019-04-03T01:20:32.114Z,23.57
2019-04-03T01:23:06.909Z,23.53
2019-04-03T01:25:39.640Z,21.33
2019-04-03T01:28:12.333Z,23.23
2019-04-03T01:30:48.112Z,22.13
2019-04-03T01:33:20.548Z,25.73
2019-04-03T01:35:53.493Z,26.17
2019-04-03T01:38:26.260Z,27.43
2019-04-03T01:40:58.877Z,25.33
2019-04-03T01:43:31.348Z,23.37
2019-04-03T01:46:03.982Z,24.23
2019-04-03T01:48:36.434Z,21.77
2019-04-03T01:51:08.610Z,26.87
2019-04-03T01:53:41.324Z,26.03
2019-04-03T01:56:13.933Z,21.47
2019-04-03T01:58:46.378Z,26.13
2019-04-03T02:01:19.124Z,23.67
2019-04-03T02:03:51.707Z,22.73
2019-04-03T02:06:23.878Z,24.37
2019-04-03T02:08:56.437Z,22.70
2019-04-03T02:11:29.083Z,22.60
2019-04-03T02:14:01.647Z,22.60
2019-04-03T02:16:35.540Z,21.87
2019-04-03T02:19:07.748Z,25.57
2019-04-03T02:21:40.268Z,24.17
2019-04-03T02:24:12.709Z,24.50
2019-04-03T02:26:45.232Z,22.87
2019-04-03T02:29:17.671Z,23.03
2019-04-03T02:31:52.924Z,22.73
2019-04-03T02:34:24.414Z,23.27
2019-04-03T02:36:56.971Z,22.60
2019-04-03T02:39:29.552Z,24.07
2019-04-03T02:42:02.235Z,21.30
2019-04-03T02:44:34.831Z,23.37
2019-04-03T02:47:07.373Z,22.50
2019-04-03T02:49:42.710Z,23.23
2019-04-03T02:52:14.161Z,25.50
2019-04-03T02:54:48.172Z,23.57
2019-04-03T02:57:20.834Z,23.33
2019-04-03T02:59:57.691Z,22.60
2019-04-03T03:02:27.719Z,24.13
2019-04-03T03:05:00.241Z,21.30
2019-04-03T03:07:36.334Z,27.47
2019-04-03T03:10:09.649Z,24.53
2019-04-03T03:12:43.461Z,27.53
2019-04-03T03:15:16.616Z,26.73
2019-04-03T03:17:50.217Z,23.27
2019-04-03T03:20:25.462Z,23.07
2019-04-03T03:22:59.510Z,26.20
2019-04-03T03:25:33.679Z,23.47
2019-04-03T03:28:06.897Z,22.73
2019-04-03T03:30:46.768Z,23.53
2019-04-03T03:33:32.414Z,26.60
2019-04-03T03:35:50.820Z,24.40
2019-04-03T03:38:27.281Z,23.30
2019-04-03T03:40:59.215Z,28.10
2019-04-03T03:43:37.049Z,32.03
2019-04-03T03:46:06.853Z,32.87
2019-04-03T03:48:42.074Z,28.50
2019-04-03T03:51:15.887Z,29.77
2019-04-03T03:53:50.423Z,28.10
2019-04-03T03:56:23.504Z,26.50
2019-04-03T03:58:55.821Z,26.27
2019-04-03T04:01:31.008Z,22.77
2019-04-03T04:04:03.214Z,27.33
2019-04-03T04:06:36.641Z,22.23
2019-04-03T04:09:09.583Z,24.67
2019-04-03T04:11:42.288Z,23.87
2019-04-03T04:14:16.238Z,23.23
2019-04-03T04:16:49.194Z,26.97
2019-04-03T04:19:22.979Z,27.20
2019-04-03T04:21:56.184Z,24.37
2019-04-03T04:24:28.853Z,25.23
2019-04-03T04:27:03.179Z,26.60
2019-04-03T04:29:35.949Z,26.90
2019-04-03T04:32:08.461Z,28.90
2019-04-03T04:34:41.035Z,38.53
2019-04-03T04:37:13.643Z,46.50
2019-04-03T04:39:46.095Z,44.53
2019-04-03T04:42:18.988Z,45.67
2019-04-03T04:44:51.323Z,39.57
2019-04-03T04:47:23.853Z,33.33
2019-04-03T04:49:56.406Z,36.53
2019-04-03T04:52:30.051Z,31.00
2019-04-03T04:55:02.961Z,32.10
2019-04-03T04:57:35.598Z,33.40
2019-04-03T05:00:09.262Z,36.97
2019-04-03T05:02:41.509Z,57.73
2019-04-03T05:05:14.063Z,44.83
2019-04-03T05:07:46.674Z,32.30
2019-04-03T05:10:19.248Z,32.63
2019-04-03T05:12:51.721Z,29.93
2019-04-03T05:15:24.115Z,30.13
2019-04-03T05:17:57.699Z,28.43
2019-04-03T05:20:31.282Z,29.47
2019-04-03T05:23:03.883Z,30.67
2019-04-03T05:25:37.448Z,31.07
2019-04-03T05:28:09.938Z,29.63
2019-04-03T05:30:42.422Z,29.13
2019-04-03T05:33:14.681Z,27.40
2019-04-03T05:35:47.243Z,29.47
2019-04-03T05:38:21.703Z,26.60
2019-04-03T05:40:54.698Z,29.13
2019-04-03T05:43:30.387Z,32.00
2019-04-03T05:46:02.309Z,29.67
2019-04-03T05:48:35.024Z,29.63
2019-04-03T05:51:07.480Z,28.70
2019-04-03T05:53:40.180Z,28.33
2019-04-03T05:56:12.753Z,29.47
2019-04-03T05:58:55.586Z,28.30
2019-04-03T06:01:20.371Z,28.63
2019-04-03T06:03:53.245Z,29.23
2019-04-03T06:06:26.060Z,32.57
2019-04-03T06:08:58.646Z,29.77
2019-04-03T06:11:31.064Z,30.30
2019-04-03T06:14:03.317Z,31.53
2019-04-03T06:16:35.877Z,30.03
2019-04-03T06:19:08.209Z,28.67
2019-04-03T06:21:40.868Z,27.33
2019-04-03T06:24:17.783Z,28.33
2019-04-03T06:27:01.477Z,29.53
2019-04-03T06:32:47.012Z,26.33
2019-04-03T06:35:20.112Z,30.97
2019-04-03T06:37:54.393Z,32.27
2019-04-03T06:40:28.327Z,29.43
2019-04-03T06:43:07.785Z,34.13
2019-04-03T06:45:56.878Z,24.37
2019-04-03T06:48:25.500Z,27.33
2019-04-03T06:50:58.223Z,25.37
2019-04-03T06:53:36.256Z,27.10
2019-04-03T06:56:30.590Z,30.33
2019-04-03T06:59:18.357Z,26.83
2019-04-03T07:01:54.869Z,27.00
2019-04-03T07:04:34.005Z,27.23
2019-04-03T07:07:13.579Z,26.23
2019-04-03T07:09:58.816Z,29.47
2019-04-03T07:12:38.834Z,31.33
2019-04-03T07:15:59.578Z,32.00
2019-04-03T07:18:24.090Z,29.80
2019-04-03T07:21:20.713Z,26.93
2019-04-03T07:24:14.422Z,27.53
2019-04-03T07:26:53.173Z,23.43
2019-04-03T07:29:31.801Z,27.83
2019-04-03T07:32:28.588Z,27.73
2019-04-03T07:42:24.576Z,25.60
2019-04-03T07:44:57.970Z,26.63
2019-04-03T07:50:36.979Z,22.70
2019-04-03T10:54:09.221Z,22.67
2019-04-03T11:25:25.141Z,26.67
2019-04-03T12:40:32.756Z,21.57
2019-04-03T12:43:51.311Z,25.23
2019-04-03T12:46:47.953Z,25.20
2019-04-03T12:49:33.763Z,25.53
2019-04-03T12:52:43.233Z,19.47
2019-04-03T12:59:30.301Z,23.03
2019-04-03T13:05:24.265Z,25.63
2019-04-03T13:08:24.074Z,19.83
2019-04-03T13:11:06.189Z,22.57
2019-04-03T13:13:47.372Z,27.20
2019-04-03T13:16:41.790Z,25.67
2019-04-03T13:43:53.177Z,21.87
2019-04-03T13:47:09.260Z,23.53
2019-04-03T13:56:53.836Z,21.33
2019-04-03T14:07:02.519Z,24.73
2019-04-03T14:17:05.467Z,23.67
2019-04-03T14:20:36.071Z,25.03
2019-04-03T14:23:10.350Z,28.17
2019-04-03T14:29:40.582Z,28.80
2019-04-03T14:32:55.278Z,20.63
2019-04-03T14:36:05.172Z,26.40
2019-04-03T14:39:02.396Z,27.17
2019-04-03T14:45:21.062Z,23.90
2019-04-03T14:48:17.280Z,26.17
2019-04-03T14:54:19.845Z,25.87
2019-04-03T14:57:11.116Z,24.13
2019-04-03T14:59:48.824Z,26.83
2019-04-03T15:05:48.033Z,24.83
2019-04-03T15:11:46.008Z,28.73
2019-04-03T15:14:29.482Z,21.97
2019-04-03T15:17:11.588Z,24.00
2019-04-03T15:23:26.059Z,25.53
2019-04-03T15:26:14.235Z,28.10
2019-04-03T15:29:05.432Z,27.63
2019-04-03T15:34:55.339Z,23.83
2019-04-03T15:37:53.649Z,23.20
2019-04-03T15:40:43.718Z,26.03
2019-04-03T15:43:21.610Z,26.80
2019-04-03T15:46:12.378Z,27.03
2019-04-03T15:48:53.457Z,36.93
2019-04-03T15:51:41.966Z,37.43
2019-04-03T15:54:25.852Z,25.43
2019-04-03T16:06:49.856Z,25.17
2019-04-03T16:09:42.574Z,26.50
2019-04-03T16:19:32.597Z,28.57
2019-04-03T16:39:07.054Z,25.53
2019-04-03T16:41:54.813Z,27.10
2019-04-03T16:44:48.096Z,28.70
2019-04-03T16:47:51.756Z,28.47
2019-04-03T16:57:47.503Z,34.83
